METAR Data
IDs: Format: Raw Decoded Include TAF

Data at: 0407 UTC 24 Jun 2021

KSAT 240351Z 16010KT 10SM FEW250 28/22 A2998 RMK AO2 SLP131 T02830217 $

KSSF 240353Z AUTO 14006KT 10SM CLR 28/23 A2995 RMK AO2 SLP127 T02780233

KHYI 240356Z AUTO 18007KT 10SM CLR 28/23 A2998 RMK AO2 SLP141 T02780233

KAUS 240353Z 17008KT 10SM FEW038 28/23 A2995 RMK AO2 SLP131 T02780233